sensor_id;sensor_type;location;lat;lon;timestamp;P1;durP1;ratioP1;P2;durP2;ratioP2
73557;SDS011;61829;53.286;10.434;2023-05-07T00:00:45;8.30;;;5.28;;
73557;SDS011;61829;53.286;10.434;2023-05-07T00:03:20;7.43;;;4.90;;
73557;SDS011;61829;53.286;10.434;2023-05-07T00:05:48;8.02;;;4.85;;
73557;SDS011;61829;53.286;10.434;2023-05-07T00:10:40;8.13;;;4.93;;
73557;SDS011;61829;53.286;10.434;2023-05-07T00:13:06;7.95;;;5.25;;
73557;SDS011;61829;53.286;10.434;2023-05-07T00:15:32;7.68;;;4.45;;
73557;SDS011;61829;53.286;10.434;2023-05-07T00:17:58;8.10;;;5.05;;
73557;SDS011;61829;53.286;10.434;2023-05-07T00:20:25;8.45;;;5.90;;
73557;SDS011;61829;53.286;10.434;2023-05-07T00:22:51;7.72;;;4.75;;
73557;SDS011;61829;53.286;10.434;2023-05-07T00:25:18;8.05;;;4.25;;
73557;SDS011;61829;53.286;10.434;2023-05-07T00:27:45;8.07;;;5.05;;
73557;SDS011;61829;53.286;10.434;2023-05-07T00:30:11;8.15;;;5.25;;
73557;SDS011;61829;53.286;10.434;2023-05-07T00:32:37;10.43;;;5.25;;
73557;SDS011;61829;53.286;10.434;2023-05-07T00:35:04;8.00;;;5.38;;
73557;SDS011;61829;53.286;10.434;2023-05-07T00:37:31;9.27;;;5.70;;
73557;SDS011;61829;53.286;10.434;2023-05-07T00:39:57;8.52;;;5.53;;
73557;SDS011;61829;53.286;10.434;2023-05-07T00:42:24;8.18;;;5.20;;
73557;SDS011;61829;53.286;10.434;2023-05-07T00:44:51;7.55;;;5.05;;
73557;SDS011;61829;53.286;10.434;2023-05-07T00:47:16;7.68;;;5.07;;
73557;SDS011;61829;53.286;10.434;2023-05-07T00:49:43;7.93;;;5.03;;
73557;SDS011;61829;53.286;10.434;2023-05-07T00:52:14;7.78;;;5.20;;
73557;SDS011;61829;53.286;10.434;2023-05-07T00:54:42;7.75;;;4.53;;
73557;SDS011;61829;53.286;10.434;2023-05-07T00:57:10;7.50;;;5.15;;
73557;SDS011;61829;53.286;10.434;2023-05-07T00:59:36;7.70;;;4.88;;
73557;SDS011;61829;53.286;10.434;2023-05-07T01:05:05;6.60;;;4.53;;
73557;SDS011;61829;53.286;10.434;2023-05-07T01:07:34;7.05;;;4.95;;
73557;SDS011;61829;53.286;10.434;2023-05-07T01:10:03;7.93;;;5.50;;
73557;SDS011;61829;53.286;10.434;2023-05-07T01:14:56;7.50;;;4.60;;
73557;SDS011;61829;53.286;10.434;2023-05-07T01:17:23;7.18;;;5.07;;
73557;SDS011;61829;53.286;10.434;2023-05-07T01:19:49;8.95;;;5.57;;
73557;SDS011;61829;53.286;10.434;2023-05-07T01:22:16;6.80;;;4.57;;
73557;SDS011;61829;53.286;10.434;2023-05-07T01:24:46;8.00;;;5.20;;
73557;SDS011;61829;53.286;10.434;2023-05-07T01:27:12;6.97;;;4.65;;
73557;SDS011;61829;53.286;10.434;2023-05-07T01:29:38;7.65;;;4.72;;
73557;SDS011;61829;53.286;10.434;2023-05-07T01:32:07;8.55;;;5.05;;
73557;SDS011;61829;53.286;10.434;2023-05-07T01:34:37;7.50;;;4.93;;
73557;SDS011;61829;53.286;10.434;2023-05-07T01:37:03;10.85;;;5.28;;
73557;SDS011;61829;53.286;10.434;2023-05-07T01:39:29;8.13;;;5.05;;
73557;SDS011;61829;53.286;10.434;2023-05-07T01:41:56;8.98;;;5.88;;
73557;SDS011;61829;53.286;10.434;2023-05-07T01:44:22;9.32;;;6.10;;
73557;SDS011;61829;53.286;10.434;2023-05-07T01:46:49;10.32;;;5.57;;
73557;SDS011;61829;53.286;10.434;2023-05-07T01:49:15;7.43;;;5.50;;
73557;SDS011;61829;53.286;10.434;2023-05-07T01:51:42;8.55;;;5.38;;
73557;SDS011;61829;53.286;10.434;2023-05-07T01:54:09;10.68;;;5.93;;
73557;SDS011;61829;53.286;10.434;2023-05-07T01:56:35;9.60;;;5.60;;
73557;SDS011;61829;53.286;10.434;2023-05-07T01:59:01;14.52;;;5.70;;
73557;SDS011;61829;53.286;10.434;2023-05-07T02:01:27;11.88;;;6.63;;
73557;SDS011;61829;53.286;10.434;2023-05-07T02:03:53;10.50;;;5.63;;
73557;SDS011;61829;53.286;10.434;2023-05-07T02:06:19;11.82;;;6.18;;
73557;SDS011;61829;53.286;10.434;2023-05-07T02:08:46;11.15;;;6.70;;
73557;SDS011;61829;53.286;10.434;2023-05-07T02:11:12;10.30;;;6.25;;
73557;SDS011;61829;53.286;10.434;2023-05-07T02:13:39;11.20;;;6.72;;
73557;SDS011;61829;53.286;10.434;2023-05-07T02:16:04;9.98;;;6.20;;
73557;SDS011;61829;53.286;10.434;2023-05-07T02:22:10;9.55;;;6.00;;
73557;SDS011;61829;53.286;10.434;2023-05-07T02:24:40;10.13;;;6.50;;
73557;SDS011;61829;53.286;10.434;2023-05-07T02:27:06;11.30;;;6.70;;
73557;SDS011;61829;53.286;10.434;2023-05-07T02:29:31;10.27;;;5.72;;
73557;SDS011;61829;53.286;10.434;2023-05-07T02:31:57;10.65;;;6.03;;
73557;SDS011;61829;53.286;10.434;2023-05-07T02:34:23;9.77;;;6.38;;
73557;SDS011;61829;53.286;10.434;2023-05-07T02:36:49;9.95;;;6.05;;
73557;SDS011;61829;53.286;10.434;2023-05-07T02:39:16;8.30;;;5.40;;
73557;SDS011;61829;53.286;10.434;2023-05-07T02:41:42;9.23;;;5.97;;
73557;SDS011;61829;53.286;10.434;2023-05-07T02:44:08;9.10;;;5.50;;
73557;SDS011;61829;53.286;10.434;2023-05-07T02:46:34;8.82;;;5.70;;
73557;SDS011;61829;53.286;10.434;2023-05-07T02:49:00;9.10;;;5.72;;
73557;SDS011;61829;53.286;10.434;2023-05-07T02:51:26;10.55;;;6.28;;
73557;SDS011;61829;53.286;10.434;2023-05-07T02:53:52;9.02;;;5.40;;
73557;SDS011;61829;53.286;10.434;2023-05-07T02:56:18;9.75;;;6.22;;
73557;SDS011;61829;53.286;10.434;2023-05-07T02:58:44;9.20;;;5.97;;
73557;SDS011;61829;53.286;10.434;2023-05-07T03:01:10;10.05;;;7.00;;
73557;SDS011;61829;53.286;10.434;2023-05-07T03:03:35;10.20;;;5.85;;
73557;SDS011;61829;53.286;10.434;2023-05-07T03:06:01;9.00;;;5.47;;
73557;SDS011;61829;53.286;10.434;2023-05-07T03:08:27;10.18;;;6.25;;
73557;SDS011;61829;53.286;10.434;2023-05-07T03:10:53;9.55;;;5.72;;
73557;SDS011;61829;53.286;10.434;2023-05-07T03:13:19;9.48;;;6.40;;
73557;SDS011;61829;53.286;10.434;2023-05-07T03:15:45;9.98;;;6.55;;
73557;SDS011;61829;53.286;10.434;2023-05-07T03:18:11;10.43;;;7.10;;
73557;SDS011;61829;53.286;10.434;2023-05-07T03:20:37;10.52;;;6.35;;
73557;SDS011;61829;53.286;10.434;2023-05-07T03:23:03;9.60;;;6.43;;
73557;SDS011;61829;53.286;10.434;2023-05-07T03:25:29;9.38;;;5.90;;
73557;SDS011;61829;53.286;10.434;2023-05-07T03:27:57;8.93;;;5.65;;
73557;SDS011;61829;53.286;10.434;2023-05-07T03:30:23;10.15;;;6.28;;
73557;SDS011;61829;53.286;10.434;2023-05-07T03:32:49;9.48;;;5.70;;
73557;SDS011;61829;53.286;10.434;2023-05-07T03:35:15;8.77;;;5.63;;
73557;SDS011;61829;53.286;10.434;2023-05-07T03:37:41;9.80;;;5.22;;
73557;SDS011;61829;53.286;10.434;2023-05-07T03:40:08;10.80;;;5.75;;
73557;SDS011;61829;53.286;10.434;2023-05-07T03:42:35;9.20;;;5.40;;
73557;SDS011;61829;53.286;10.434;2023-05-07T03:45:01;8.35;;;5.85;;
73557;SDS011;61829;53.286;10.434;2023-05-07T03:47:27;9.40;;;6.05;;
73557;SDS011;61829;53.286;10.434;2023-05-07T03:49:53;10.68;;;5.88;;
73557;SDS011;61829;53.286;10.434;2023-05-07T03:52:20;9.88;;;6.18;;
73557;SDS011;61829;53.286;10.434;2023-05-07T03:54:50;9.02;;;4.97;;
73557;SDS011;61829;53.286;10.434;2023-05-07T03:57:15;9.73;;;5.88;;
73557;SDS011;61829;53.286;10.434;2023-05-07T03:59:41;10.48;;;6.13;;
73557;SDS011;61829;53.286;10.434;2023-05-07T04:02:07;9.85;;;6.57;;
73557;SDS011;61829;53.286;10.434;2023-05-07T04:04:33;9.18;;;5.57;;
73557;SDS011;61829;53.286;10.434;2023-05-07T04:06:59;10.90;;;6.65;;
73557;SDS011;61829;53.286;10.434;2023-05-07T04:09:26;10.02;;;6.10;;
73557;SDS011;61829;53.286;10.434;2023-05-07T04:11:51;10.02;;;6.55;;
73557;SDS011;61829;53.286;10.434;2023-05-07T04:14:17;9.77;;;6.28;;
73557;SDS011;61829;53.286;10.434;2023-05-07T04:16:43;11.20;;;6.40;;
73557;SDS011;61829;53.286;10.434;2023-05-07T04:19:09;10.57;;;6.55;;
73557;SDS011;61829;53.286;10.434;2023-05-07T04:21:34;10.55;;;6.60;;
73557;SDS011;61829;53.286;10.434;2023-05-07T04:24:02;11.63;;;7.13;;
73557;SDS011;61829;53.286;10.434;2023-05-07T04:26:28;10.00;;;6.15;;
73557;SDS011;61829;53.286;10.434;2023-05-07T04:28:55;9.35;;;5.88;;
73557;SDS011;61829;53.286;10.434;2023-05-07T04:31:20;12.95;;;6.43;;
73557;SDS011;61829;53.286;10.434;2023-05-07T04:33:46;11.93;;;5.95;;
73557;SDS011;61829;53.286;10.434;2023-05-07T04:36:12;11.55;;;5.95;;
73557;SDS011;61829;53.286;10.434;2023-05-07T04:38:38;12.13;;;7.22;;
73557;SDS011;61829;53.286;10.434;2023-05-07T04:41:04;12.45;;;7.50;;
73557;SDS011;61829;53.286;10.434;2023-05-07T04:43:31;10.75;;;6.68;;
73557;SDS011;61829;53.286;10.434;2023-05-07T04:45:57;11.60;;;6.65;;
73557;SDS011;61829;53.286;10.434;2023-05-07T04:48:23;11.30;;;7.20;;
73557;SDS011;61829;53.286;10.434;2023-05-07T04:50:50;11.80;;;6.10;;
73557;SDS011;61829;53.286;10.434;2023-05-07T04:53:16;10.38;;;6.03;;
73557;SDS011;61829;53.286;10.434;2023-05-07T04:55:43;9.65;;;6.13;;
73557;SDS011;61829;53.286;10.434;2023-05-07T04:58:13;11.57;;;6.10;;
73557;SDS011;61829;53.286;10.434;2023-05-07T05:00:39;9.13;;;5.93;;
73557;SDS011;61829;53.286;10.434;2023-05-07T05:03:08;9.55;;;5.97;;
73557;SDS011;61829;53.286;10.434;2023-05-07T05:05:34;11.05;;;5.80;;
73557;SDS011;61829;53.286;10.434;2023-05-07T05:08:00;9.10;;;5.93;;
73557;SDS011;61829;53.286;10.434;2023-05-07T05:10:26;9.32;;;5.38;;
73557;SDS011;61829;53.286;10.434;2023-05-07T05:12:52;10.68;;;5.97;;
73557;SDS011;61829;53.286;10.434;2023-05-07T05:15:18;9.02;;;5.38;;
73557;SDS011;61829;53.286;10.434;2023-05-07T05:17:43;9.95;;;5.80;;
73557;SDS011;61829;53.286;10.434;2023-05-07T05:20:09;10.38;;;6.47;;
73557;SDS011;61829;53.286;10.434;2023-05-07T05:22:37;9.65;;;5.03;;
73557;SDS011;61829;53.286;10.434;2023-05-07T05:25:03;9.38;;;6.28;;
73557;SDS011;61829;53.286;10.434;2023-05-07T05:27:29;9.68;;;6.10;;
73557;SDS011;61829;53.286;10.434;2023-05-07T05:29:55;10.63;;;6.07;;
73557;SDS011;61829;53.286;10.434;2023-05-07T05:32:21;9.18;;;5.93;;
73557;SDS011;61829;53.286;10.434;2023-05-07T05:34:47;12.70;;;6.80;;
73557;SDS011;61829;53.286;10.434;2023-05-07T05:37:13;11.02;;;6.32;;
73557;SDS011;61829;53.286;10.434;2023-05-07T05:39:39;9.50;;;5.93;;
73557;SDS011;61829;53.286;10.434;2023-05-07T05:42:05;11.27;;;6.38;;
73557;SDS011;61829;53.286;10.434;2023-05-07T05:44:30;11.68;;;6.70;;
73557;SDS011;61829;53.286;10.434;2023-05-07T05:46:56;9.30;;;5.70;;
73557;SDS011;61829;53.286;10.434;2023-05-07T05:49:24;10.23;;;6.05;;
73557;SDS011;61829;53.286;10.434;2023-05-07T05:51:51;9.10;;;5.57;;
73557;SDS011;61829;53.286;10.434;2023-05-07T05:54:16;10.38;;;6.20;;
73557;SDS011;61829;53.286;10.434;2023-05-07T05:56:43;9.95;;;5.70;;
73557;SDS011;61829;53.286;10.434;2023-05-07T05:59:08;9.35;;;5.93;;
73557;SDS011;61829;53.286;10.434;2023-05-07T06:01:34;10.23;;;5.63;;
73557;SDS011;61829;53.286;10.434;2023-05-07T06:04:00;9.27;;;5.40;;
73557;SDS011;61829;53.286;10.434;2023-05-07T06:06:26;9.90;;;5.95;;
73557;SDS011;61829;53.286;10.434;2023-05-07T06:08:52;9.38;;;5.22;;
73557;SDS011;61829;53.286;10.434;2023-05-07T06:11:18;8.85;;;5.45;;
73557;SDS011;61829;53.286;10.434;2023-05-07T06:13:44;8.20;;;4.97;;
73557;SDS011;61829;53.286;10.434;2023-05-07T06:16:10;10.18;;;5.32;;
73557;SDS011;61829;53.286;10.434;2023-05-07T06:18:35;8.40;;;4.93;;
73557;SDS011;61829;53.286;10.434;2023-05-07T06:21:02;10.23;;;5.93;;
73557;SDS011;61829;53.286;10.434;2023-05-07T06:23:27;9.80;;;5.57;;
73557;SDS011;61829;53.286;10.434;2023-05-07T06:25:53;9.13;;;6.03;;
73557;SDS011;61829;53.286;10.434;2023-05-07T06:28:19;9.15;;;5.10;;
73557;SDS011;61829;53.286;10.434;2023-05-07T06:30:45;11.30;;;6.30;;
73557;SDS011;61829;53.286;10.434;2023-05-07T06:33:11;9.65;;;5.20;;
73557;SDS011;61829;53.286;10.434;2023-05-07T06:35:39;9.43;;;5.22;;
73557;SDS011;61829;53.286;10.434;2023-05-07T06:38:05;10.15;;;5.32;;
73557;SDS011;61829;53.286;10.434;2023-05-07T06:40:31;8.25;;;4.88;;
73557;SDS011;61829;53.286;10.434;2023-05-07T06:42:57;9.05;;;5.97;;
73557;SDS011;61829;53.286;10.434;2023-05-07T06:45:22;8.95;;;5.75;;
73557;SDS011;61829;53.286;10.434;2023-05-07T06:47:49;8.32;;;5.00;;
73557;SDS011;61829;53.286;10.434;2023-05-07T06:50:16;10.02;;;5.45;;
73557;SDS011;61829;53.286;10.434;2023-05-07T06:52:43;8.75;;;5.43;;
73557;SDS011;61829;53.286;10.434;2023-05-07T06:55:08;10.23;;;5.45;;
73557;SDS011;61829;53.286;10.434;2023-05-07T06:57:34;9.00;;;5.53;;
73557;SDS011;61829;53.286;10.434;2023-05-07T07:00:00;8.75;;;5.03;;
73557;SDS011;61829;53.286;10.434;2023-05-07T07:02:26;8.65;;;5.45;;
73557;SDS011;61829;53.286;10.434;2023-05-07T07:04:52;8.90;;;5.35;;
73557;SDS011;61829;53.286;10.434;2023-05-07T07:07:18;7.68;;;4.82;;
73557;SDS011;61829;53.286;10.434;2023-05-07T07:09:44;8.68;;;5.63;;
73557;SDS011;61829;53.286;10.434;2023-05-07T07:12:10;8.35;;;5.55;;
73557;SDS011;61829;53.286;10.434;2023-05-07T07:14:36;8.32;;;5.25;;
73557;SDS011;61829;53.286;10.434;2023-05-07T07:17:05;7.65;;;5.10;;
73557;SDS011;61829;53.286;10.434;2023-05-07T07:19:32;8.23;;;5.15;;
73557;SDS011;61829;53.286;10.434;2023-05-07T07:21:58;7.85;;;4.95;;
73557;SDS011;61829;53.286;10.434;2023-05-07T07:24:24;9.13;;;5.63;;
73557;SDS011;61829;53.286;10.434;2023-05-07T07:26:50;7.68;;;5.05;;
73557;SDS011;61829;53.286;10.434;2023-05-07T07:29:16;8.80;;;5.05;;
73557;SDS011;61829;53.286;10.434;2023-05-07T07:31:44;10.85;;;6.18;;
73557;SDS011;61829;53.286;10.434;2023-05-07T07:34:09;7.32;;;4.57;;
73557;SDS011;61829;53.286;10.434;2023-05-07T07:36:35;8.57;;;4.28;;
73557;SDS011;61829;53.286;10.434;2023-05-07T07:39:01;7.57;;;4.88;;
73557;SDS011;61829;53.286;10.434;2023-05-07T07:41:28;8.15;;;4.55;;
73557;SDS011;61829;53.286;10.434;2023-05-07T07:43:53;8.13;;;4.75;;
73557;SDS011;61829;53.286;10.434;2023-05-07T07:46:21;7.38;;;4.18;;
73557;SDS011;61829;53.286;10.434;2023-05-07T07:48:47;7.45;;;4.40;;
73557;SDS011;61829;53.286;10.434;2023-05-07T07:51:13;7.57;;;4.32;;
73557;SDS011;61829;53.286;10.434;2023-05-07T07:53:39;7.63;;;5.00;;
73557;SDS011;61829;53.286;10.434;2023-05-07T07:56:07;7.43;;;4.43;;
73557;SDS011;61829;53.286;10.434;2023-05-07T07:58:32;7.72;;;4.20;;
73557;SDS011;61829;53.286;10.434;2023-05-07T08:00:59;8.88;;;4.85;;
73557;SDS011;61829;53.286;10.434;2023-05-07T08:03:24;7.97;;;4.70;;
73557;SDS011;61829;53.286;10.434;2023-05-07T08:05:50;6.40;;;4.28;;
73557;SDS011;61829;53.286;10.434;2023-05-07T08:08:16;6.90;;;4.65;;
73557;SDS011;61829;53.286;10.434;2023-05-07T08:10:42;7.85;;;5.20;;
73557;SDS011;61829;53.286;10.434;2023-05-07T08:13:09;7.72;;;5.10;;
73557;SDS011;61829;53.286;10.434;2023-05-07T08:15:35;6.28;;;4.78;;
73557;SDS011;61829;53.286;10.434;2023-05-07T08:18:01;7.38;;;4.47;;
73557;SDS011;61829;53.286;10.434;2023-05-07T08:20:28;8.40;;;5.07;;
73557;SDS011;61829;53.286;10.434;2023-05-07T08:25:23;6.53;;;4.30;;
73557;SDS011;61829;53.286;10.434;2023-05-07T08:27:49;7.60;;;4.55;;
73557;SDS011;61829;53.286;10.434;2023-05-07T08:30:15;7.20;;;4.78;;
73557;SDS011;61829;53.286;10.434;2023-05-07T08:32:43;7.60;;;4.70;;
73557;SDS011;61829;53.286;10.434;2023-05-07T08:35:09;7.38;;;4.53;;
73557;SDS011;61829;53.286;10.434;2023-05-07T08:37:35;8.32;;;4.80;;
73557;SDS011;61829;53.286;10.434;2023-05-07T08:40:01;6.70;;;5.07;;
73557;SDS011;61829;53.286;10.434;2023-05-07T08:42:26;7.30;;;4.90;;
73557;SDS011;61829;53.286;10.434;2023-05-07T08:44:54;7.22;;;4.65;;
73557;SDS011;61829;53.286;10.434;2023-05-07T08:47:22;7.80;;;4.75;;
73557;SDS011;61829;53.286;10.434;2023-05-07T08:49:55;7.35;;;4.80;;
73557;SDS011;61829;53.286;10.434;2023-05-07T08:52:20;7.95;;;4.97;;
73557;SDS011;61829;53.286;10.434;2023-05-07T08:54:46;7.93;;;5.20;;
73557;SDS011;61829;53.286;10.434;2023-05-07T08:57:13;6.60;;;4.45;;
73557;SDS011;61829;53.286;10.434;2023-05-07T08:59:40;6.47;;;3.85;;
73557;SDS011;61829;53.286;10.434;2023-05-07T09:02:06;8.65;;;4.78;;
73557;SDS011;61829;53.286;10.434;2023-05-07T09:04:35;8.02;;;5.05;;
73557;SDS011;61829;53.286;10.434;2023-05-07T09:07:01;6.85;;;4.57;;
73557;SDS011;61829;53.286;10.434;2023-05-07T09:09:32;8.00;;;5.38;;
73557;SDS011;61829;53.286;10.434;2023-05-07T09:11:59;7.68;;;4.85;;
73557;SDS011;61829;53.286;10.434;2023-05-07T09:14:27;8.05;;;5.22;;
73557;SDS011;61829;53.286;10.434;2023-05-07T09:16:53;9.57;;;5.28;;
73557;SDS011;61829;53.286;10.434;2023-05-07T09:19:22;7.40;;;4.68;;
73557;SDS011;61829;53.286;10.434;2023-05-07T09:21:50;7.57;;;5.05;;
73557;SDS011;61829;53.286;10.434;2023-05-07T09:24:26;7.13;;;4.68;;
73557;SDS011;61829;53.286;10.434;2023-05-07T09:26:54;7.15;;;4.72;;
73557;SDS011;61829;53.286;10.434;2023-05-07T09:29:21;8.18;;;4.90;;
73557;SDS011;61829;53.286;10.434;2023-05-07T09:31:46;7.05;;;4.65;;
73557;SDS011;61829;53.286;10.434;2023-05-07T09:34:12;6.28;;;4.60;;
73557;SDS011;61829;53.286;10.434;2023-05-07T09:36:38;8.82;;;4.90;;
73557;SDS011;61829;53.286;10.434;2023-05-07T09:39:04;7.00;;;4.75;;
73557;SDS011;61829;53.286;10.434;2023-05-07T09:41:30;10.27;;;4.93;;
73557;SDS011;61829;53.286;10.434;2023-05-07T09:43:57;7.63;;;4.55;;
73557;SDS011;61829;53.286;10.434;2023-05-07T09:46:27;6.38;;;3.63;;
73557;SDS011;61829;53.286;10.434;2023-05-07T09:48:57;6.15;;;4.40;;
73557;SDS011;61829;53.286;10.434;2023-05-07T09:51:45;8.02;;;4.93;;
73557;SDS011;61829;53.286;10.434;2023-05-07T09:54:17;7.53;;;4.50;;
73557;SDS011;61829;53.286;10.434;2023-05-07T09:56:48;6.78;;;4.30;;
73557;SDS011;61829;53.286;10.434;2023-05-07T09:59:15;7.95;;;5.55;;
73557;SDS011;61829;53.286;10.434;2023-05-07T10:01:42;7.10;;;4.95;;
73557;SDS011;61829;53.286;10.434;2023-05-07T10:04:10;7.13;;;4.15;;
73557;SDS011;61829;53.286;10.434;2023-05-07T10:09:03;6.63;;;4.13;;
73557;SDS011;61829;53.286;10.434;2023-05-07T10:11:33;6.07;;;4.38;;
73557;SDS011;61829;53.286;10.434;2023-05-07T10:14:01;6.43;;;3.92;;
73557;SDS011;61829;53.286;10.434;2023-05-07T10:16:28;6.95;;;4.25;;
73557;SDS011;61829;53.286;10.434;2023-05-07T10:18:58;7.60;;;4.30;;
73557;SDS011;61829;53.286;10.434;2023-05-07T10:21:24;6.38;;;4.47;;
73557;SDS011;61829;53.286;10.434;2023-05-07T10:23:59;7.40;;;4.70;;
73557;SDS011;61829;53.286;10.434;2023-05-07T10:26:31;6.45;;;4.10;;
73557;SDS011;61829;53.286;10.434;2023-05-07T10:29:07;6.05;;;4.18;;
73557;SDS011;61829;53.286;10.434;2023-05-07T10:32:02;8.25;;;4.38;;
73557;SDS011;61829;53.286;10.434;2023-05-07T10:34:42;7.63;;;4.10;;
73557;SDS011;61829;53.286;10.434;2023-05-07T10:37:10;6.50;;;4.25;;
73557;SDS011;61829;53.286;10.434;2023-05-07T10:39:37;7.53;;;4.60;;
73557;SDS011;61829;53.286;10.434;2023-05-07T10:42:13;6.38;;;3.70;;
73557;SDS011;61829;53.286;10.434;2023-05-07T10:44:40;6.00;;;3.92;;
73557;SDS011;61829;53.286;10.434;2023-05-07T10:47:06;10.25;;;4.10;;
73557;SDS011;61829;53.286;10.434;2023-05-07T10:54:43;7.85;;;4.65;;
73557;SDS011;61829;53.286;10.434;2023-05-07T10:59:54;7.28;;;4.20;;
73557;SDS011;61829;53.286;10.434;2023-05-07T11:02:19;7.60;;;4.38;;
73557;SDS011;61829;53.286;10.434;2023-05-07T11:04:45;5.88;;;3.90;;
73557;SDS011;61829;53.286;10.434;2023-05-07T11:10:23;6.72;;;3.75;;
73557;SDS011;61829;53.286;10.434;2023-05-07T11:12:49;5.50;;;3.63;;
73557;SDS011;61829;53.286;10.434;2023-05-07T11:15:33;7.63;;;4.25;;
73557;SDS011;61829;53.286;10.434;2023-05-07T11:18:00;5.93;;;3.80;;
73557;SDS011;61829;53.286;10.434;2023-05-07T11:26:00;6.40;;;3.25;;
73557;SDS011;61829;53.286;10.434;2023-05-07T11:28:27;4.25;;;2.92;;
73557;SDS011;61829;53.286;10.434;2023-05-07T11:30:54;5.00;;;3.22;;
73557;SDS011;61829;53.286;10.434;2023-05-07T11:33:20;4.85;;;3.42;;
73557;SDS011;61829;53.286;10.434;2023-05-07T11:35:48;5.47;;;3.40;;
73557;SDS011;61829;53.286;10.434;2023-05-07T11:38:13;5.15;;;3.20;;
73557;SDS011;61829;53.286;10.434;2023-05-07T11:40:49;4.82;;;3.20;;
73557;SDS011;61829;53.286;10.434;2023-05-07T11:43:16;6.57;;;2.95;;
73557;SDS011;61829;53.286;10.434;2023-05-07T11:45:42;4.53;;;3.28;;
73557;SDS011;61829;53.286;10.434;2023-05-07T11:48:10;4.07;;;2.80;;
73557;SDS011;61829;53.286;10.434;2023-05-07T11:50:36;4.95;;;3.05;;
73557;SDS011;61829;53.286;10.434;2023-05-07T11:53:07;4.25;;;3.13;;
73557;SDS011;61829;53.286;10.434;2023-05-07T11:55:33;4.85;;;3.00;;
73557;SDS011;61829;53.286;10.434;2023-05-07T11:57:59;3.90;;;2.70;;
73557;SDS011;61829;53.286;10.434;2023-05-07T12:00:25;5.40;;;3.33;;
73557;SDS011;61829;53.286;10.434;2023-05-07T12:06:15;4.40;;;2.70;;
73557;SDS011;61829;53.286;10.434;2023-05-07T12:08:42;5.20;;;2.70;;
73557;SDS011;61829;53.286;10.434;2023-05-07T12:11:12;4.90;;;2.55;;
73557;SDS011;61829;53.286;10.434;2023-05-07T12:13:41;4.43;;;2.58;;
73557;SDS011;61829;53.286;10.434;2023-05-07T12:16:08;4.10;;;2.72;;
73557;SDS011;61829;53.286;10.434;2023-05-07T12:18:36;5.03;;;2.63;;
73557;SDS011;61829;53.286;10.434;2023-05-07T12:21:03;4.90;;;2.67;;
73557;SDS011;61829;53.286;10.434;2023-05-07T12:23:30;5.55;;;3.15;;
73557;SDS011;61829;53.286;10.434;2023-05-07T12:25:57;4.25;;;2.53;;
73557;SDS011;61829;53.286;10.434;2023-05-07T12:28:24;5.07;;;2.50;;
73557;SDS011;61829;53.286;10.434;2023-05-07T12:30:50;3.63;;;2.20;;
73557;SDS011;61829;53.286;10.434;2023-05-07T12:33:24;3.20;;;2.20;;
73557;SDS011;61829;53.286;10.434;2023-05-07T12:35:52;3.83;;;2.17;;
73557;SDS011;61829;53.286;10.434;2023-05-07T12:38:19;4.05;;;2.55;;
73557;SDS011;61829;53.286;10.434;2023-05-07T12:40:49;3.35;;;2.22;;
73557;SDS011;61829;53.286;10.434;2023-05-07T12:43:19;3.55;;;2.20;;
73557;SDS011;61829;53.286;10.434;2023-05-07T12:45:46;4.28;;;2.17;;
73557;SDS011;61829;53.286;10.434;2023-05-07T12:48:14;3.80;;;2.20;;
73557;SDS011;61829;53.286;10.434;2023-05-07T12:50:41;5.07;;;2.13;;
73557;SDS011;61829;53.286;10.434;2023-05-07T12:53:09;4.95;;;2.40;;
73557;SDS011;61829;53.286;10.434;2023-05-07T12:55:44;3.95;;;2.10;;
73557;SDS011;61829;53.286;10.434;2023-05-07T13:00:43;2.90;;;1.75;;
73557;SDS011;61829;53.286;10.434;2023-05-07T13:03:10;4.65;;;2.60;;
73557;SDS011;61829;53.286;10.434;2023-05-07T13:05:36;2.97;;;1.95;;
73557;SDS011;61829;53.286;10.434;2023-05-07T13:08:02;3.83;;;2.13;;
73557;SDS011;61829;53.286;10.434;2023-05-07T13:10:28;3.75;;;2.22;;
73557;SDS011;61829;53.286;10.434;2023-05-07T13:12:54;3.70;;;2.25;;
73557;SDS011;61829;53.286;10.434;2023-05-07T13:15:20;3.22;;;2.20;;
73557;SDS011;61829;53.286;10.434;2023-05-07T13:17:47;3.30;;;1.98;;
73557;SDS011;61829;53.286;10.434;2023-05-07T13:20:13;4.03;;;2.00;;
73557;SDS011;61829;53.286;10.434;2023-05-07T13:22:39;2.65;;;1.73;;
73557;SDS011;61829;53.286;10.434;2023-05-07T13:25:05;3.47;;;2.13;;
73557;SDS011;61829;53.286;10.434;2023-05-07T13:27:32;21.13;;;2.28;;
73557;SDS011;61829;53.286;10.434;2023-05-07T13:30:01;3.70;;;1.88;;
73557;SDS011;61829;53.286;10.434;2023-05-07T13:32:30;4.18;;;2.15;;
73557;SDS011;61829;53.286;10.434;2023-05-07T13:34:57;3.05;;;2.08;;
73557;SDS011;61829;53.286;10.434;2023-05-07T13:37:22;2.70;;;1.60;;
73557;SDS011;61829;53.286;10.434;2023-05-07T13:39:48;3.17;;;1.67;;
73557;SDS011;61829;53.286;10.434;2023-05-07T13:42:14;3.42;;;1.77;;
73557;SDS011;61829;53.286;10.434;2023-05-07T13:44:40;2.75;;;1.90;;
73557;SDS011;61829;53.286;10.434;2023-05-07T13:47:06;4.40;;;1.83;;
73557;SDS011;61829;53.286;10.434;2023-05-07T13:49:32;4.70;;;1.80;;
73557;SDS011;61829;53.286;10.434;2023-05-07T13:51:58;3.38;;;1.70;;
73557;SDS011;61829;53.286;10.434;2023-05-07T13:54:24;3.58;;;2.13;;
73557;SDS011;61829;53.286;10.434;2023-05-07T13:56:50;2.92;;;1.65;;
73557;SDS011;61829;53.286;10.434;2023-05-07T13:59:16;2.30;;;1.60;;
73557;SDS011;61829;53.286;10.434;2023-05-07T14:01:41;2.63;;;1.60;;
73557;SDS011;61829;53.286;10.434;2023-05-07T14:04:08;4.63;;;1.90;;
73557;SDS011;61829;53.286;10.434;2023-05-07T14:06:35;3.03;;;1.70;;
73557;SDS011;61829;53.286;10.434;2023-05-07T14:09:00;2.97;;;1.50;;
73557;SDS011;61829;53.286;10.434;2023-05-07T14:11:26;3.08;;;1.92;;
73557;SDS011;61829;53.286;10.434;2023-05-07T14:13:55;2.75;;;1.65;;
73557;SDS011;61829;53.286;10.434;2023-05-07T14:16:22;2.65;;;1.67;;
73557;SDS011;61829;53.286;10.434;2023-05-07T14:18:49;2.75;;;1.80;;
73557;SDS011;61829;53.286;10.434;2023-05-07T14:21:15;2.42;;;1.58;;
73557;SDS011;61829;53.286;10.434;2023-05-07T14:23:41;2.42;;;1.70;;
73557;SDS011;61829;53.286;10.434;2023-05-07T14:26:06;3.40;;;1.60;;
73557;SDS011;61829;53.286;10.434;2023-05-07T14:28:32;3.00;;;1.80;;
73557;SDS011;61829;53.286;10.434;2023-05-07T14:30:58;2.95;;;1.65;;
73557;SDS011;61829;53.286;10.434;2023-05-07T14:33:25;3.90;;;1.90;;
73557;SDS011;61829;53.286;10.434;2023-05-07T14:35:50;2.78;;;1.85;;
73557;SDS011;61829;53.286;10.434;2023-05-07T14:38:16;2.88;;;1.63;;
73557;SDS011;61829;53.286;10.434;2023-05-07T14:40:42;5.20;;;1.60;;
73557;SDS011;61829;53.286;10.434;2023-05-07T14:43:08;3.63;;;2.00;;
73557;SDS011;61829;53.286;10.434;2023-05-07T14:45:34;4.80;;;1.88;;
73557;SDS011;61829;53.286;10.434;2023-05-07T14:48:00;2.58;;;1.60;;
73557;SDS011;61829;53.286;10.434;2023-05-07T14:50:26;2.67;;;1.77;;
73557;SDS011;61829;53.286;10.434;2023-05-07T14:52:52;2.28;;;1.52;;
73557;SDS011;61829;53.286;10.434;2023-05-07T14:55:17;3.63;;;1.88;;
73557;SDS011;61829;53.286;10.434;2023-05-07T14:57:43;2.55;;;1.65;;
73557;SDS011;61829;53.286;10.434;2023-05-07T15:00:09;3.10;;;1.88;;
73557;SDS011;61829;53.286;10.434;2023-05-07T15:02:37;2.67;;;1.70;;
73557;SDS011;61829;53.286;10.434;2023-05-07T15:05:02;1.92;;;1.35;;
73557;SDS011;61829;53.286;10.434;2023-05-07T15:09:55;3.85;;;1.90;;
73557;SDS011;61829;53.286;10.434;2023-05-07T15:12:21;3.97;;;1.80;;